Time;durP1;ratioP1;P1;durP2;ratioP2;P2;SDS_P1;SDS_P2;PMS_P1;PMS_P2;Temp;Humidity;BMP_temperature;BMP_pressure;BME280_temperature;BME280_humidity;BME280_pressure;Samples;Min_cycle;Max_cycle;Signal;HPM_P1;HPM_P2
2023/02/22 00:00:55;;;;;;;15.50;4.10;;;;;;;3.75;79.98;99904.80;103168;1254;96437;-69
2023/02/22 00:03:27;;;;;;;14.30;4.60;;;;;;;3.75;79.92;99905.84;102874;1258;137855;-69
2023/02/22 00:05:58;;;;;;;16.20;4.70;;;;;;;3.73;79.98;99904.30;103035;1254;107149;-69
2023/02/22 00:08:29;;;;;;;14.80;4.50;;;;;;;3.72;79.91;99903.98;103080;1260;137930;-70
2023/02/22 00:11:08;;;;;;;14.50;4.40;;;;;;;3.70;80.07;99902.63;103110;1255;106912;-69
2023/02/22 00:13:37;;;;;;;17.80;4.70;;;;;;;3.67;79.98;99909.88;103031;1260;96448;-69
2023/02/22 00:16:19;;;;;;;11.70;4.20;;;;;;;3.64;80.07;99903.55;103155;1254;109818;-69
2023/02/22 00:18:50;;;;;;;13.90;4.60;;;;;;;3.62;80.03;99908.91;103162;1258;108445;-69
2023/02/22 00:21:22;;;;;;;10.90;4.30;;;;;;;3.59;80.16;99907.71;103071;1256;138113;-69
2023/02/22 00:23:53;;;;;;;17.70;4.60;;;;;;;3.56;79.99;99909.11;103032;1255;108900;-69
2023/02/22 00:26:23;;;;;;;16.50;4.90;;;;;;;3.53;80.03;99911.20;102944;1254;138749;-69
2023/02/22 00:29:11;;;;;;;14.00;4.30;;;;;;;3.48;80.03;99914.86;103058;1259;110822;-69
2023/02/22 00:31:42;;;;;;;12.80;4.40;;;;;;;3.43;79.99;99914.73;102891;1254;138342;-70
2023/02/22 00:34:10;;;;;;;14.40;4.80;;;;;;;3.39;80.14;99917.50;103096;1254;97000;-69
2023/02/22 00:36:38;;;;;;;15.00;4.90;;;;;;;3.34;80.22;99916.52;103072;1256;108086;-69
2023/02/22 00:39:06;;;;;;;15.30;4.70;;;;;;;3.29;80.16;99920.52;102833;1254;138011;-69
2023/02/22 00:41:38;;;;;;;12.30;4.60;;;;;;;3.23;80.10;99919.36;103015;1256;110985;-69
2023/02/22 00:44:08;;;;;;;12.50;3.80;;;;;;;3.17;80.19;99925.07;102865;1258;140381;-69
2023/02/22 00:46:36;;;;;;;14.80;4.80;;;;;;;3.11;80.26;99925.30;103034;1258;98157;-69
2023/02/22 00:49:08;;;;;;;17.60;4.90;;;;;;;3.04;80.27;99926.70;103030;1254;108542;-69
2023/02/22 00:51:36;;;;;;;15.60;5.00;;;;;;;2.99;80.28;99934.13;103081;1258;138939;-69
2023/02/22 00:54:24;;;;;;;15.90;4.90;;;;;;;2.91;80.55;99932.46;103046;1258;110974;-68
2023/02/22 00:56:53;;;;;;;18.30;5.40;;;;;;;2.88;80.71;99936.44;103009;1254;138339;-68
2023/02/22 00:59:21;;;;;;;12.90;4.30;;;;;;;2.83;80.62;99938.34;103118;1254;97636;-69
2023/02/22 01:01:49;;;;;;;14.40;5.00;;;;;;;2.79;80.61;99941.80;102266;1254;1003242;-69
2023/02/22 01:04:18;;;;;;;16.20;5.40;;;;;;;2.74;80.87;99945.10;102366;1254;1002949;-69
2023/02/22 01:06:49;;;;;;;17.90;4.90;;;;;;;2.68;80.94;99949.07;103095;1254;109922;-68
2023/02/22 01:09:26;;;;;;;16.50;5.90;;;;;;;2.63;80.95;99953.21;102991;1258;137959;-69
2023/02/22 01:11:57;;;;;;;15.50;5.50;;;;;;;2.59;81.15;99950.84;103182;1255;96457;-69
2023/02/22 01:14:26;;;;;;;15.90;5.70;;;;;;;2.56;81.30;99954.29;102422;1254;1003017;-69
2023/02/22 01:16:57;;;;;;;16.70;5.30;;;;;;;2.52;81.41;99957.05;103173;1258;96470;-68
2023/02/22 01:19:31;;;;;;;21.90;6.10;;;;;;;2.48;81.72;99961.52;103073;1254;111827;-69
2023/02/22 01:22:10;;;;;;;17.30;5.80;;;;;;;2.43;81.95;99972.52;103167;1259;107619;-68
2023/02/22 01:24:57;;;;;;;16.60;5.50;;;;;;;2.38;81.88;99974.77;103218;1258;96509;-68
2023/02/22 01:27:45;;;;;;;19.10;6.10;;;;;;;2.32;82.21;99978.21;103038;1258;138050;-68
2023/02/22 01:30:33;;;;;;;16.10;5.80;;;;;;;2.28;82.21;99986.46;103197;1254;96364;-68
2023/02/22 01:33:07;;;;;;;19.20;6.60;;;;;;;2.24;82.27;99990.08;103050;1258;137898;-68
2023/02/22 01:35:46;;;;;;;21.00;6.00;;;;;;;2.22;82.53;99991.98;103455;1254;106935;-68
2023/02/22 01:38:19;;;;;;;16.70;6.00;;;;;;;2.21;82.69;99994.73;103158;1254;138617;-68
2023/02/22 01:40:50;;;;;;;18.50;5.60;;;;;;;2.19;82.63;99991.65;103130;1258;106745;-69
2023/02/22 01:43:30;;;;;;;22.50;6.20;;;;;;;2.21;82.86;99993.35;103229;1258;96444;-68
2023/02/22 01:46:22;;;;;;;19.60;5.70;;;;;;;2.20;82.79;99991.13;102373;1253;1002864;-68
2023/02/22 01:49:10;;;;;;;15.80;5.80;;;;;;;2.19;82.74;99989.94;103144;1254;106883;-68
2023/02/22 01:51:44;;;;;;;13.50;5.60;;;;;;;2.18;82.71;99991.31;102981;1254;138060;-68
2023/02/22 01:54:26;;;;;;;17.40;5.40;;;;;;;2.18;82.67;99995.77;102263;1254;1003002;-68
2023/02/22 01:57:13;;;;;;;19.00;5.70;;;;;;;2.19;82.96;99999.54;103016;1254;139249;-68
2023/02/22 01:59:48;;;;;;;19.20;4.90;;;;;;;2.18;82.72;100000.23;103176;1254;111291;-69
2023/02/22 02:02:30;;;;;;;15.50;5.60;;;;;;;2.18;82.86;100000.06;102166;1258;1003068;-69
2023/02/22 02:05:01;;;;;;;13.90;4.60;;;;;;;2.18;82.77;100002.63;103096;1256;96453;-69
2023/02/22 02:07:31;;;;;;;18.80;5.00;;;;;;;2.20;82.89;99999.52;102467;1254;1003703;-68
2023/02/22 02:10:03;;;;;;;19.80;5.40;;;;;;;2.22;82.82;100005.88;102207;1254;1003239;-68
2023/02/22 02:12:40;;;;;;;17.60;5.20;;;;;;;2.21;82.86;100007.25;103105;1254;108977;-69
2023/02/22 02:15:23;;;;;;;14.60;5.00;;;;;;;2.21;82.87;100012.39;103078;1254;138177;-68
2023/02/22 02:17:56;;;;;;;12.80;4.80;;;;;;;2.21;82.85;100011.36;103229;1254;97102;-68
2023/02/22 02:20:31;;;;;;;16.50;4.70;;;;;;;2.21;82.68;100010.67;102614;1254;1005765;-68
2023/02/22 02:23:11;;;;;;;16.80;5.30;;;;;;;2.23;82.82;100011.02;102421;1256;1002552;-68
2023/02/22 02:26:15;;;;;;;17.20;5.00;;;;;;;2.23;82.59;100009.81;103163;1255;109530;-68
2023/02/22 02:29:08;;;;;;;15.20;4.60;;;;;;;2.21;82.50;100009.99;102998;1259;110491;-68
2023/02/22 02:32:25;;;;;;;13.20;5.00;;;;;;;2.19;82.40;100012.75;103044;1258;96952;-69
2023/02/22 02:34:58;;;;;;;14.90;5.50;;;;;;;2.15;82.05;100020.98;102262;1254;1002593;-68
2023/02/22 02:37:36;;;;;;;18.10;4.90;;;;;;;2.12;82.22;100024.05;103120;1254;96591;-68
2023/02/22 02:40:17;;;;;;;14.30;4.90;;;;;;;2.09;82.10;100023.38;102320;1255;1003428;-69
2023/02/22 02:42:54;;;;;;;14.90;5.10;;;;;;;2.05;82.04;100028.71;102284;1256;1003683;-68
2023/02/22 02:45:41;;;;;;;15.30;5.10;;;;;;;2.03;82.29;100028.89;103079;1254;138273;-68
2023/02/22 02:48:32;;;;;;;18.20;6.10;;;;;;;2.00;82.17;100032.16;103214;1255;109324;-68
2023/02/22 02:51:05;;;;;;;15.30;5.10;;;;;;;1.98;82.26;100032.49;103089;1258;138212;-68
2023/02/22 02:53:53;;;;;;;15.50;5.40;;;;;;;1.94;82.15;100036.59;103129;1258;109974;-68
2023/02/22 02:56:35;;;;;;;15.30;4.60;;;;;;;1.92;82.35;100035.56;103074;1258;138754;-69
2023/02/22 02:59:31;;;;;;;14.20;5.20;;;;;;;1.91;82.44;100035.40;103185;1255;96453;-69
2023/02/22 03:02:40;;;;;;;14.20;5.00;;;;;;;1.91;82.49;100034.71;102979;1254;138207;-68
2023/02/22 03:05:41;;;;;;;17.10;5.80;;;;;;;1.89;82.50;100038.66;103232;1258;96431;-69
2023/02/22 03:08:17;;;;;;;14.70;4.70;;;;;;;1.89;82.64;100041.93;103041;1256;138670;-68
2023/02/22 03:10:53;;;;;;;;;;;;;;;1.90;82.66;100040.04;103052;1254;107515;-69
2023/02/22 03:13:41;;;;;;;15.50;4.80;;;;;;;1.90;82.84;100043.98;103064;1254;96514;-69
2023/02/22 03:16:21;;;;;;;12.10;5.50;;;;;;;1.90;82.80;100048.95;102873;1254;138133;-69
2023/02/22 03:19:02;;;;;;;19.30;6.60;;;;;;;1.90;82.95;100051.18;103154;1254;96453;-69
2023/02/22 03:21:40;;;;;;;19.00;5.90;;;;;;;1.90;82.93;100054.95;103069;1256;138021;-69
2023/02/22 03:24:24;;;;;;;20.80;5.70;;;;;;;1.89;83.03;100058.21;102338;1254;1002866;-69
2023/02/22 03:27:01;;;;;;;17.20;5.80;;;;;;;1.85;82.73;100058.21;103038;1254;139954;-68
2023/02/22 03:29:35;;;;;;;19.70;6.20;;;;;;;1.80;82.76;100063.88;103116;1256;107944;-69
2023/02/22 03:32:07;;;;;;;14.50;5.20;;;;;;;1.78;83.01;100066.25;102966;1255;138431;-69
2023/02/22 03:34:51;;;;;;;17.20;5.70;;;;;;;1.77;83.05;100067.96;103131;1254;108867;-69
2023/02/22 03:37:43;;;;;;;13.30;5.50;;;;;;;1.75;83.24;100070.88;102283;1258;1002620;-69
2023/02/22 03:40:16;;;;;;;19.50;5.70;;;;;;;1.73;83.33;100069.00;102980;1254;138237;-69
2023/02/22 03:42:52;;;;;;;15.00;4.60;;;;;;;1.72;83.45;100075.52;103049;1254;107125;-69
2023/02/22 03:45:24;;;;;;;15.30;5.80;;;;;;;1.70;83.63;100075.86;102227;1254;1003324;-69
2023/02/22 03:47:58;;;;;;;13.50;5.30;;;;;;;1.68;83.67;100083.23;102277;1260;1002539;-69
2023/02/22 03:50:46;;;;;;;16.60;5.30;;;;;;;1.65;83.94;100078.77;102054;1257;1003841;-69
2023/02/22 03:53:17;;;;;;;13.00;5.00;;;;;;;1.63;83.93;100081.34;102827;1261;96445;-69
2023/02/22 03:55:51;;;;;;;11.20;5.50;;;;;;;1.63;84.07;100084.09;102882;1258;107398;-68
2023/02/22 03:58:24;;;;;;;14.20;5.60;;;;;;;1.63;84.14;100089.58;102802;1257;96439;-68
2023/02/22 04:00:56;;;;;;;13.10;4.80;;;;;;;1.63;84.23;100091.80;103079;1257;110927;-69
2023/02/22 04:03:39;;;;;;;13.00;4.50;;;;;;;1.66;84.15;100092.30;101203;1258;1016187;-69
2023/02/22 04:07:00;;;;;;;11.60;5.00;;;;;;;1.70;84.42;100094.54;102892;1261;96924;-69
2023/02/22 04:10:08;;;;;;;15.40;4.40;;;;;;;1.73;84.24;100094.02;102764;1257;138014;-69
2023/02/22 04:12:56;;;;;;;13.60;5.30;;;;;;;1.77;84.55;100097.96;103680;1258;96442;-69
2023/02/22 04:15:26;;;;;;;11.80;4.80;;;;;;;1.80;84.33;100094.05;102768;1258;138075;-70
2023/02/22 04:18:12;;;;;;;13.00;4.60;;;;;;;1.83;84.43;100097.14;102904;1261;107223;-69
2023/02/22 04:20:40;;;;;;;14.10;4.90;;;;;;;1.84;84.47;100100.39;103784;1257;138472;-70
2023/02/22 04:23:18;;;;;;;14.70;4.80;;;;;;;1.87;84.31;100101.76;102942;1257;107678;-70
2023/02/22 04:25:48;;;;;;;11.30;5.20;;;;;;;1.88;84.47;100105.18;102221;1257;1002985;-70
2023/02/22 04:28:36;;;;;;;10.10;4.60;;;;;;;1.91;84.49;100107.41;102198;1258;1003599;-70
2023/02/22 04:31:08;;;;;;;12.50;5.30;;;;;;;1.94;84.54;100110.84;102821;1259;107922;-70
2023/02/22 04:33:45;;;;;;;12.50;4.80;;;;;;;1.97;84.49;100112.73;102887;1258;138430;-70
2023/02/22 04:36:16;;;;;;;13.00;5.80;;;;;;;1.97;84.64;100114.96;102168;1257;1003099;-70
2023/02/22 04:38:49;;;;;;;10.80;5.20;;;;;;;1.99;84.71;100119.61;102719;1260;138380;-69
2023/02/22 04:41:21;;;;;;;14.20;5.40;;;;;;;2.02;84.74;100119.09;102195;1260;1002873;-69
2023/02/22 04:43:58;;;;;;;10.00;5.20;;;;;;;2.03;84.77;100121.31;102749;1264;107401;-70
2023/02/22 04:46:30;;;;;;;6.50;3.70;;;;;;;2.00;84.29;100125.27;102247;1257;1002659;-68
2023/02/22 04:49:18;;;;;;;5.70;3.30;;;;;;;1.94;83.56;100129.52;103098;1258;108088;-68
2023/02/22 04:51:50;;;;;;;3.90;2.60;;;;;;;1.89;83.25;100131.08;102888;1255;138021;-68
2023/02/22 04:54:22;;;;;;;4.40;3.00;;;;;;;1.87;83.25;100131.92;102846;1255;110248;-68
2023/02/22 04:56:54;;;;;;;4.80;2.80;;;;;;;1.84;83.30;100131.42;102900;1255;138026;-68
2023/02/22 04:59:29;;;;;;;4.90;2.90;;;;;;;1.82;83.13;100131.42;103083;1257;96446;-68
2023/02/22 05:02:02;;;;;;;4.60;3.10;;;;;;;1.80;83.24;100134.85;103120;1256;107275;-68
2023/02/22 05:04:29;;;;;;;3.90;2.50;;;;;;;1.79;83.23;100137.39;103073;1258;96444;-68
2023/02/22 05:07:08;;;;;;;5.40;2.90;;;;;;;1.79;83.40;100138.09;103116;1258;109711;-69
2023/02/22 05:09:45;;;;;;;8.50;3.10;;;;;;;1.81;83.47;100139.82;102967;1254;139661;-68
2023/02/22 05:12:15;;;;;;;4.30;3.30;;;;;;;1.82;83.36;100140.68;103121;1256;96627;-68
2023/02/22 05:14:43;;;;;;;4.40;2.90;;;;;;;1.82;83.48;100139.98;102931;1258;138771;-67
2023/02/22 05:17:30;;;;;;;6.00;3.20;;;;;;;1.85;83.48;100144.45;103233;1257;96563;-67
2023/02/22 05:20:01;;;;;;;4.50;3.10;;;;;;;1.86;83.40;100143.94;102377;1254;1002940;-66
2023/02/22 05:22:31;;;;;;;4.70;3.30;;;;;;;1.86;83.26;100145.81;103172;1258;107789;-67
2023/02/22 05:25:20;;;;;;;4.70;2.90;;;;;;;1.87;83.19;100142.05;103112;1258;98163;-66
2023/02/22 05:27:51;;;;;;;3.50;2.70;;;;;;;1.89;83.27;100148.56;102268;1255;1002617;-66
2023/02/22 05:30:39;;;;;;;4.90;3.10;;;;;;;1.89;83.14;100150.63;103182;1254;97703;-67
2023/02/22 05:33:17;;;;;;;6.20;2.90;;;;;;;1.86;82.79;100154.73;102958;1258;138764;-68
2023/02/22 05:35:45;;;;;;;5.30;3.00;;;;;;;1.85;82.75;100156.45;103118;1254;108541;-67
2023/02/22 05:38:31;;;;;;;5.00;2.80;;;;;;;1.84;83.01;100162.11;102271;1258;1003797;-67
2023/02/22 05:41:12;;;;;;;5.80;2.90;;;;;;;1.86;82.72;100165.20;103238;1254;108502;-66
2023/02/22 05:44:01;;;;;;;4.40;2.80;;;;;;;1.87;82.82;100165.53;103726;1255;97829;-67
2023/02/22 05:46:39;;;;;;;4.90;2.70;;;;;;;1.89;82.68;100168.61;102448;1258;1003101;-67
2023/02/22 05:49:07;;;;;;;3.90;2.80;;;;;;;1.89;82.26;100166.39;103129;1258;108316;-68
2023/02/22 05:51:36;;;;;;;5.00;2.80;;;;;;;1.88;82.40;100171.36;103154;1258;138400;-66
2023/02/22 05:54:13;;;;;;;5.60;3.20;;;;;;;1.90;82.18;100175.31;103093;1254;107665;-69
2023/02/22 05:56:46;;;;;;;5.30;3.00;;;;;;;1.90;82.19;100179.26;103086;1254;138576;-66
2023/02/22 05:59:22;;;;;;;3.80;2.90;;;;;;;1.92;81.84;100181.14;103111;1254;112400;-65
2023/02/22 06:01:59;;;;;;;6.60;3.00;;;;;;;1.93;81.69;100186.45;103116;1254;107289;-68
2023/02/22 06:04:47;;;;;;;6.30;3.00;;;;;;;1.94;81.41;100190.05;103153;1258;98362;-66
2023/02/22 06:07:18;;;;;;;3.90;2.90;;;;;;;1.95;81.33;100194.00;102391;1254;1003259;-73
2023/02/22 06:09:45;;;;;;;4.30;2.70;;;;;;;1.98;81.02;100198.83;103020;1258;138249;-68
2023/02/22 06:12:15;;;;;;;4.30;3.40;;;;;;;2.00;80.75;100201.23;102304;1256;1004023;-66
2023/02/22 06:14:53;;;;;;;5.60;3.00;;;;;;;2.02;80.69;100206.72;103170;1254;138621;-66
2023/02/22 06:17:30;;;;;;;4.60;3.00;;;;;;;2.05;80.54;100206.21;103222;1254;99518;-67
2023/02/22 06:20:08;;;;;;;4.10;2.80;;;;;;;2.07;80.20;100210.84;103937;1254;107429;-71
2023/02/22 06:22:57;;;;;;;3.90;2.60;;;;;;;2.06;79.94;100213.06;104472;1254;95744;-67
2023/02/22 06:25:45;;;;;;;4.00;2.60;;;;;;;2.06;79.77;100214.44;103157;1258;111678;-67
2023/02/22 06:28:32;;;;;;;6.20;2.90;;;;;;;2.08;79.86;100218.73;103011;1255;138228;-67
2023/02/22 06:31:00;;;;;;;3.80;2.80;;;;;;;2.10;79.46;100224.21;103096;1255;97761;-67
2023/02/22 06:33:27;;;;;;;5.70;3.10;;;;;;;2.10;79.49;100228.66;102995;1258;138066;-67
2023/02/22 06:35:54;;;;;;;6.60;3.60;;;;;;;2.12;79.67;100232.61;103193;1258;97803;-66
2023/02/22 06:38:26;;;;;;;6.50;2.90;;;;;;;2.14;79.39;100236.57;103092;1255;111628;-68
2023/02/22 06:40:55;;;;;;;4.90;3.00;;;;;;;2.16;79.44;100240.02;103074;1255;108959;-67
2023/02/22 06:43:23;;;;;;;5.70;3.20;;;;;;;2.19;79.22;100242.77;103089;1258;98528;-67
2023/02/22 06:45:50;;;;;;;6.60;3.40;;;;;;;2.21;79.21;100246.89;103047;1256;137918;-66
2023/02/22 06:48:18;;;;;;;6.70;3.70;;;;;;;2.25;79.20;100250.66;103937;1254;97795;-67
2023/02/22 06:51:07;;;;;;;5.50;2.80;;;;;;;2.28;78.66;100252.55;103022;1256;138216;-69
2023/02/22 06:53:37;;;;;;;3.30;2.60;;;;;;;2.28;78.25;100251.86;102953;1254;107710;-73
2023/02/22 06:56:05;;;;;;;3.60;2.50;;;;;;;2.28;78.06;100254.09;103153;1254;97929;-69
2023/02/22 06:58:35;;;;;;;4.00;2.80;;;;;;;2.29;78.11;100253.23;103419;1258;139028;-69
2023/02/22 07:01:05;;;;;;;5.20;3.20;;;;;;;2.30;77.99;100251.00;103100;1255;97943;-69
2023/02/22 07:03:36;;;;;;;4.70;2.80;;;;;;;2.32;77.96;100251.52;102974;1256;138070;-69
2023/02/22 07:06:04;;;;;;;4.20;2.90;;;;;;;2.34;77.79;100252.22;103100;1255;107729;-69
2023/02/22 07:08:32;;;;;;;5.10;3.00;;;;;;;2.39;77.68;100257.21;103141;1254;139064;-69
2023/02/22 07:10:59;;;;;;;4.50;2.60;;;;;;;2.41;77.72;100264.23;103195;1254;108043;-69
2023/02/22 07:13:26;;;;;;;4.50;3.00;;;;;;;2.47;77.68;100263.38;103247;1254;97819;-69
2023/02/22 07:15:53;;;;;;;4.40;2.80;;;;;;;2.52;77.50;100269.91;102896;1254;138169;-67
2023/02/22 07:18:22;;;;;;;5.10;3.00;;;;;;;2.56;77.34;100272.67;103027;1259;107702;-69
2023/02/22 07:20:50;;;;;;;5.10;2.70;;;;;;;2.61;76.89;100272.67;103065;1254;138326;-69
2023/02/22 07:23:18;;;;;;;4.60;3.10;;;;;;;2.66;76.79;100272.48;103026;1258;107663;-70
2023/02/22 07:26:06;;;;;;;3.60;2.50;;;;;;;2.71;76.43;100271.30;102350;1258;1003027;-69
2023/02/22 07:28:54;;;;;;;3.50;2.50;;;;;;;2.75;76.37;100274.05;103039;1254;114123;-71
2023/02/22 07:31:37;;;;;;;3.70;2.50;;;;;;;2.78;75.98;100270.44;102352;1256;1002771;-71
2023/02/22 07:34:25;;;;;;;3.40;2.50;;;;;;;2.84;76.08;100274.55;102951;1254;139250;-69
2023/02/22 07:37:03;;;;;;;4.90;3.20;;;;;;;2.89;75.98;100274.39;102324;1258;1002524;-69
2023/02/22 07:39:50;;;;;;;4.20;2.90;;;;;;;2.95;75.78;100274.21;102963;1254;138536;-70
2023/02/22 07:42:28;;;;;;;3.00;2.40;;;;;;;3.00;75.44;100272.48;103176;1256;110125;-70
2023/02/22 07:44:56;;;;;;;3.70;2.70;;;;;;;3.05;75.28;100271.45;103052;1258;138301;-69
2023/02/22 07:47:23;;;;;;;4.50;3.10;;;;;;;3.09;75.17;100273.00;103227;1258;97901;-69
2023/02/22 07:50:13;;;;;;;4.30;2.90;;;;;;;3.14;75.09;100273.16;103160;1258;107353;-69
2023/02/22 07:53:02;;;;;;;5.60;3.10;;;;;;;3.18;74.80;100271.77;103040;1258;97804;-74
2023/02/22 07:55:37;;;;;;;4.90;3.00;;;;;;;3.26;74.64;100275.38;103177;1254;111395;-73
2023/02/22 07:58:17;;;;;;;3.80;2.70;;;;;;;3.35;74.62;100271.90;102975;1254;138224;-70
2023/02/22 08:01:05;;;;;;;4.20;2.60;;;;;;;3.46;74.24;100274.81;102998;1254;98299;-71
2023/02/22 15:01:20;;;;;;;7.20;3.90;;;;;;;1.98;59.11;100466.34;103133;1260;98714;-71
2023/02/22 15:03:48;;;;;;;7.80;4.10;;;;;;;1.98;59.04;100464.11;102795;1260;137502;-71
2023/02/22 15:06:49;;;;;;;6.30;3.90;;;;;;;1.94;58.89;100465.77;102934;1262;108549;-69
2023/02/22 15:09:22;;;;;;;7.70;4.70;;;;;;;1.90;58.88;100465.26;102016;1263;1002737;-69
2023/02/22 15:12:11;;;;;;;6.50;4.20;;;;;;;1.88;59.01;100468.33;102770;1263;107995;-70
2023/02/22 15:14:46;;;;;;;7.10;4.00;;;;;;;1.88;59.03;100466.27;102542;1263;138281;-71
2023/02/22 15:17:38;;;;;;;9.40;4.70;;;;;;;1.86;58.94;100466.08;102095;1263;1003839;-70
2023/02/22 15:20:14;;;;;;;6.00;4.20;;;;;;;1.83;58.56;100469.67;102829;1261;107482;-70
2023/02/22 15:22:51;;;;;;;5.90;4.10;;;;;;;1.79;58.89;100470.48;103031;1262;98475;-70
2023/02/22 15:25:41;;;;;;;6.90;4.00;;;;;;;1.78;58.80;100469.79;102743;1261;108907;-70
2023/02/22 15:28:16;;;;;;;6.00;4.30;;;;;;;1.78;58.72;100476.82;102761;1262;137560;-69
2023/02/22 15:30:49;;;;;;;7.50;4.70;;;;;;;1.79;58.78;100478.36;102863;1261;112018;-69
2023/02/22 15:33:23;;;;;;;4.80;3.60;;;;;;;1.78;58.67;100483.67;102034;1261;1003569;-69
2023/02/22 15:35:55;;;;;;;6.80;3.70;;;;;;;1.77;58.66;100487.27;102776;1261;97697;-69
2023/02/22 15:38:30;;;;;;;5.60;3.70;;;;;;;1.77;58.66;100487.10;102823;1263;107723;-70
2023/02/22 15:41:08;;;;;;;7.30;3.90;;;;;;;1.77;58.85;100490.87;102680;1260;97673;-68
2023/02/22 15:43:43;;;;;;;6.20;4.40;;;;;;;1.78;58.88;100490.19;102781;1260;111719;-71
2023/02/22 15:46:19;;;;;;;7.50;4.30;;;;;;;1.79;58.81;100492.09;102763;1261;137709;-69
2023/02/22 15:49:19;;;;;;;6.50;4.30;;;;;;;1.78;58.61;100489.85;102078;1257;1002559;-69
2023/02/22 15:51:53;;;;;;;6.20;4.30;;;;;;;1.75;58.40;100490.69;102827;1260;137776;-68
2023/02/22 15:54:43;;;;;;;5.70;4.30;;;;;;;1.72;58.44;100495.98;102787;1264;97880;-68
2023/02/22 15:57:34;;;;;;;6.60;4.40;;;;;;;1.67;58.37;100498.86;101925;1261;1002929;-69
2023/02/22 16:00:32;;;;;;;7.40;4.30;;;;;;;1.61;58.46;100502.23;102761;1261;106885;-69
2023/02/22 16:03:12;;;;;;;7.80;4.40;;;;;;;1.55;58.44;100500.64;102755;1263;137756;-69
2023/02/22 16:06:00;;;;;;;8.60;4.90;;;;;;;1.46;58.39;100507.77;102959;1264;107947;-70
2023/02/22 16:08:35;;;;;;;7.90;4.90;;;;;;;1.39;58.22;100511.80;103222;1258;97863;-71
2023/02/22 16:11:43;;;;;;;8.00;4.70;;;;;;;1.28;58.43;100509.15;103142;1258;110437;-71
2023/02/22 16:14:41;;;;;;;7.00;4.70;;;;;;;1.21;58.57;100513.52;102162;1258;1002986;-69
2023/02/22 16:17:29;;;;;;;7.50;5.00;;;;;;;1.17;58.82;100513.48;103556;1261;98274;-67
2023/02/22 16:20:01;;;;;;;9.10;5.20;;;;;;;1.12;58.79;100516.02;102081;1258;1003775;-68
2023/02/22 16:22:39;;;;;;;7.40;4.80;;;;;;;1.09;58.77;100523.34;102819;1264;137726;-69
2023/02/22 16:25:26;;;;;;;8.20;5.30;;;;;;;1.05;58.86;100522.08;102855;1260;111835;-68
2023/02/22 16:27:56;;;;;;;9.40;5.80;;;;;;;1.03;58.84;100521.55;102840;1264;137521;-68
2023/02/22 16:30:28;;;;;;;8.70;5.30;;;;;;;1.00;59.16;100522.89;102895;1263;97818;-68
2023/02/22 16:33:12;;;;;;;9.30;5.00;;;;;;;1.00;59.25;100527.17;102680;1261;137459;-68
2023/02/22 16:35:52;;;;;;;7.70;5.10;;;;;;;0.99;59.39;100526.65;102853;1261;97872;-69
2023/02/22 16:38:37;;;;;;;9.00;5.70;;;;;;;1.01;59.53;100531.29;102790;1257;112083;-70
2023/02/22 16:41:12;;;;;;;10.70;5.80;;;;;;;1.03;59.57;100533.71;102804;1262;108277;-69
2023/02/22 16:44:00;;;;;;;12.00;6.00;;;;;;;1.06;59.61;100537.66;102995;1257;97783;-70
2023/02/22 16:46:33;;;;;;;10.20;6.40;;;;;;;1.07;59.65;100536.85;102780;1257;137479;-70
2023/02/22 16:49:11;;;;;;;11.40;6.00;;;;;;;1.09;59.65;100541.85;102172;1258;1002896;-70
2023/02/22 16:52:02;;;;;;;12.20;6.50;;;;;;;1.09;59.58;100541.67;101656;1263;1002913;-71
2023/02/22 16:54:51;;;;;;;12.10;6.90;;;;;;;1.08;59.57;100542.67;102846;1258;108233;-70
2023/02/22 16:57:41;;;;;;;10.00;6.40;;;;;;;1.06;59.52;100545.04;102793;1257;138132;-70
2023/02/22 17:00:13;;;;;;;8.60;6.30;;;;;;;1.04;59.45;100543.65;102909;1257;107867;-70
2023/02/22 17:03:02;;;;;;;9.10;6.00;;;;;;;1.04;59.59;100544.50;102732;1262;138387;-70
2023/02/22 17:05:50;;;;;;;10.70;6.80;;;;;;;1.06;59.69;100547.09;103009;1258;111976;-71
2023/02/22 17:08:38;;;;;;;10.90;6.10;;;;;;;1.05;59.45;100546.39;102864;1257;137897;-72
2023/02/22 17:11:26;;;;;;;14.00;7.60;;;;;;;1.03;59.47;100549.97;102915;1257;97842;-70
2023/02/22 17:14:21;;;;;;;11.80;7.10;;;;;;;1.03;59.77;100553.73;102931;1258;108453;-70
2023/02/22 17:17:12;;;;;;;12.70;6.70;;;;;;;1.02;59.63;100550.30;102893;1257;97905;-72
2023/02/22 17:19:51;;;;;;;10.30;6.40;;;;;;;1.00;59.58;100553.20;102980;1261;111404;-69
2023/02/22 17:22:38;;;;;;;11.30;6.30;;;;;;;0.99;59.55;100549.42;103294;1257;137951;-70
2023/02/22 17:25:29;;;;;;;10.00;6.50;;;;;;;0.98;59.63;100548.21;102861;1264;97582;-72
2023/02/22 17:28:17;;;;;;;9.00;6.20;;;;;;;0.97;59.62;100550.59;103101;1258;138102;-68
2023/02/22 17:31:06;;;;;;;10.20;6.90;;;;;;;0.97;59.74;100546.31;103077;1257;97810;-67
2023/02/22 17:33:56;;;;;;;13.20;8.00;;;;;;;0.97;59.91;100547.86;102855;1257;137617;-69
2023/02/22 17:36:37;;;;;;;14.30;6.70;;;;;;;0.97;59.58;100545.45;102345;1263;1003403;-66
2023/02/22 17:39:09;;;;;;;10.30;6.50;;;;;;;0.94;59.39;100547.48;102840;1257;137959;-66
2023/02/22 17:41:46;;;;;;;13.00;7.50;;;;;;;0.93;59.53;100545.59;102794;1257;107519;-67
2023/02/22 17:44:16;;;;;;;13.50;7.40;;;;;;;0.90;59.48;100545.55;102796;1257;97757;-66
2023/02/22 17:46:44;;;;;;;12.20;7.20;;;;;;;0.88;59.53;100545.85;103030;1257;137574;-67
2023/02/22 17:49:31;;;;;;;10.40;6.50;;;;;;;0.86;59.61;100543.61;102831;1257;110655;-68
2023/02/22 17:52:14;;;;;;;12.70;7.10;;;;;;;0.84;59.56;100545.13;102870;1257;138338;-65
2023/02/22 17:54:42;;;;;;;13.90;7.00;;;;;;;0.80;59.14;100549.71;102968;1257;108915;-70
2023/02/22 17:57:29;;;;;;;15.50;8.00;;;;;;;0.76;59.43;100547.09;102733;1258;137667;-67
2023/02/22 18:00:23;;;;;;;18.50;9.30;;;;;;;0.72;59.39;100545.67;102943;1257;111894;-68
2023/02/22 18:03:14;;;;;;;13.30;6.90;;;;;;;0.68;59.44;100545.09;102720;1257;137830;-66
2023/02/22 18:06:02;;;;;;;12.60;7.70;;;;;;;0.65;59.39;100546.95;102887;1257;98485;-67
2023/02/22 18:08:51;;;;;;;11.80;6.90;;;;;;;0.64;59.58;100546.93;103389;1258;137946;-68
2023/02/22 18:11:42;;;;;;;14.60;7.20;;;;;;;0.63;59.69;100546.59;102877;1263;97771;-68
2023/02/22 18:14:30;;;;;;;14.50;7.00;;;;;;;0.65;59.91;100546.77;102699;1257;1002547;-67
2023/02/22 18:16:57;;;;;;;10.10;6.90;;;;;;;0.67;59.98;100555.69;103044;1257;137773;-67
2023/02/22 18:19:25;;;;;;;10.10;6.50;;;;;;;0.66;59.66;100556.88;102989;1260;97784;-68
2023/02/22 18:21:58;;;;;;;11.80;6.70;;;;;;;0.65;59.93;100563.72;102829;1257;138102;-67
2023/02/22 18:24:26;;;;;;;11.70;7.10;;;;;;;0.65;59.84;100568.17;102502;1257;1003003;-68
2023/02/22 18:27:13;;;;;;;13.80;7.90;;;;;;;0.63;59.67;100567.63;102910;1257;138027;-66
2023/02/22 18:29:53;;;;;;;11.70;7.50;;;;;;;0.59;59.62;100571.02;102917;1261;107832;-66
2023/02/22 18:32:29;;;;;;;13.50;7.40;;;;;;;0.58;59.87;100572.71;102189;1257;1002803;-66
2023/02/22 18:35:09;;;;;;;17.30;10.10;;;;;;;0.60;60.07;100572.39;103019;1263;107629;-68
2023/02/22 18:37:45;;;;;;;12.50;7.30;;;;;;;0.61;59.97;100576.52;103508;1257;97789;-67
2023/02/22 18:40:32;;;;;;;10.30;6.50;;;;;;;0.60;59.69;100576.33;102797;1263;137415;-68
2023/02/22 18:43:20;;;;;;;9.50;6.50;;;;;;;0.55;59.41;100575.23;102177;1257;1003324;-68
2023/02/22 18:46:12;;;;;;;11.90;6.70;;;;;;;0.51;59.56;100572.77;102865;1260;137611;-67
2023/02/22 18:48:54;;;;;;;11.90;6.70;;;;;;;0.49;59.64;100569.31;103174;1257;107411;-68
2023/02/22 18:51:43;;;;;;;9.50;6.50;;;;;;;0.47;59.80;100571.70;102710;1258;137766;-67
2023/02/22 18:54:13;;;;;;;11.10;7.40;;;;;;;0.47;59.92;100575.11;102842;1261;112705;-66
2023/02/22 18:57:00;;;;;;;13.60;7.30;;;;;;;0.47;60.27;100576.98;102795;1257;137878;-66
2023/02/22 18:59:48;;;;;;;11.70;7.20;;;;;;;0.48;60.15;100577.01;102982;1260;98210;-67
2023/02/22 19:02:36;;;;;;;14.60;7.60;;;;;;;0.51;60.36;100573.44;102067;1257;1003487;-67
2023/02/22 19:05:12;;;;;;;13.80;7.30;;;;;;;0.53;60.23;100565.77;102755;1257;97976;-66